Main page
METAR-TAF:

METAR-TAF

Airports :

Leonardo da Vinci–Fiumicino Airport

Rome-Fiumicino, Italy

latitude: 41-48N, longitude: 012-14E, elevation: 2 m

Current weather observation

The report was made 38 minutes ago, at 07:20 UTC
Wind 9 kt from the East/Southeast
Temperature 8°C
Humidity 87%
Pressure 1013 hPa
Visibility 10 km or more
Scattered clouds at a height of 3000 ft
Broken clouds at a height of 4500 ft
light rain

METAR: LIRF 200720Z 12009KT 9999 -RA SCT030 BKN045 08/06 Q1013 TEMPO SHRA

Time: 08:58 (07:58 UTC)

Forecast

The report was made 1 hour and 10 minutes ago, at 06:48 UTC
Forecast valid from 20 at 06 UTC to 21 at 12 UTC
Wind 12 kt from the Southeast
Visibility 10 km or more
Broken clouds at a height of 4000 ft
Temporary
from 20 at 06 UTC to 20 at 09 UTC
thunderstorm, rain
Temporary
from 20 at 09 UTC to 20 at 13 UTC
rain
Becoming
from 20 at 10 UTC to 20 at 12 UTC
Wind 12 kt from the East/Northeast

TAF: LIRF 200648Z 2006/2112 13012KT 9999 BKN040 TEMPO 2006/2009 TSRA TEMPO 2009/2013 RA BECMG 2010/2012 06012KT

Weather observations and forecasts of more than 4000 airports (METAR and TAF reports).

The available stations are represented by yellow and red dots on the map.

Hover mouse over dot to see the name of the station.

Then click to see weather observations and forecasts.

To change the map : click on the green buttons with a black cross to zoom in, on the green button with a dash to zoom out, or on the green arrows for adjacent maps.


METAR-TAF: